Aberdeen Proving Ground, MD

7:22 PM EDT on May 06, 2015 (GMT -0400)
Phillips Army Air Field | | Change Station
CLOSE
Current Station
Airport
Location: Phillips Army Airfield,
Elevation: 59 ft
Nearby Weather Stations

Elev 59 ft 39.47 °N, 76.17 °W | Updated 2 hours ago

Scattered Clouds
Scattered Clouds
79 °F
Feels Like 79 °F
N
12
Wind Variable Wind from ESE

Today
High -- | Low -- °F
--% Chance of Precip.
Yesterday
High -- | Low -- °F
Precip. -- in
6:00 AM 8:03 PM
Waning Gibbous, 92% visible
Pressure 30.18 in
Visibility 7.0 miles
Clouds Scattered Clouds 20000 ft
Dew Point 55 °F
Humidity 44%
Rainfall 0.00 in
Snow Depth Not available.
UV 3 out of 12
Pollen 6.90 out of 12
Air Quality Not available.
Flu Activity Local Activity
METAR KAPG 062047Z 12010KT 7SM SCT200 26/13 A3018

More Conditions Fewer Conditions

Pressure 30.18 in
Visibility 7.0 miles
Clouds Scattered Clouds 20000 ft
Dew Point 55 °F
Humidity 44%
Rainfall 0.00 in
Snow Depth Not available.
UV 3 out of 12
Pollen 6.90 out of 12
Air Quality Not available.
Flu Activity Local Activity
METAR KAPG 062047Z 12010KT 7SM SCT200 26/13 A3018

More Conditions Fewer Conditions

10-Day Weather Forecast

Almanac

Astronomy

May. 06, 2015 Rise Set
Actual Time
Civil Twilight
Nautical Twilight
Astronomical Twilight
Moon
Length of Visible Light
Length of Day
Tomorrow will be .
, % of the Moon is Illuminated

Today's Extremes

State Highs State Lows

Community

WunderPhotos

Upload Photos

1,819,039 photos uploaded!

WunderBlogs® & News

Nearby

Air Quality

  Air Quality AQ Index Pollutant
Not available.

Snow Depth

Station Depth Elevation

Earthquake Activity

City Distance Mag. Time & Date
Minimum magnitude displayed is 2.5.

Coastal Water Temperatures

Place Temperature

Stations

Nearby Weather Stations

Station Location Temp. Windchill Dew Point Humidity Wind Precip. Elev Updated Type